sensor_id;sensor_type;location;lat;lon;timestamp;P1;durP1;ratioP1;P2;durP2;ratioP2
76459;SDS011;65299;46.084;18.762;2023-04-19T00:00:40;3.67;;;2.08;;
76459;SDS011;65299;46.084;18.762;2023-04-19T00:03:40;3.33;;;2.30;;
76459;SDS011;65299;46.084;18.762;2023-04-19T00:06:41;5.05;;;2.40;;
76459;SDS011;65299;46.084;18.762;2023-04-19T00:09:41;4.77;;;2.00;;
76459;SDS011;65299;46.084;18.762;2023-04-19T00:12:42;5.90;;;2.03;;
76459;SDS011;65299;46.084;18.762;2023-04-19T00:15:42;4.73;;;2.17;;
76459;SDS011;65299;46.084;18.762;2023-04-19T00:18:43;6.20;;;2.00;;
76459;SDS011;65299;46.084;18.762;2023-04-19T00:21:43;5.13;;;2.40;;
76459;SDS011;65299;46.084;18.762;2023-04-19T00:24:43;4.77;;;2.37;;
76459;SDS011;65299;46.084;18.762;2023-04-19T00:27:44;6.45;;;1.95;;
76459;SDS011;65299;46.084;18.762;2023-04-19T00:30:44;5.37;;;2.00;;
76459;SDS011;65299;46.084;18.762;2023-04-19T00:33:45;3.50;;;2.10;;
76459;SDS011;65299;46.084;18.762;2023-04-19T00:36:45;4.30;;;2.10;;
76459;SDS011;65299;46.084;18.762;2023-04-19T00:39:46;6.07;;;2.20;;
76459;SDS011;65299;46.084;18.762;2023-04-19T00:42:46;6.45;;;2.13;;
76459;SDS011;65299;46.084;18.762;2023-04-19T00:45:47;4.33;;;2.00;;
76459;SDS011;65299;46.084;18.762;2023-04-19T00:48:48;3.28;;;2.00;;
76459;SDS011;65299;46.084;18.762;2023-04-19T00:51:49;4.93;;;2.00;;
76459;SDS011;65299;46.084;18.762;2023-04-19T00:54:50;3.88;;;1.75;;
76459;SDS011;65299;46.084;18.762;2023-04-19T00:57:52;5.90;;;1.88;;
76459;SDS011;65299;46.084;18.762;2023-04-19T01:00:53;4.38;;;1.85;;
76459;SDS011;65299;46.084;18.762;2023-04-19T01:03:54;3.33;;;1.73;;
76459;SDS011;65299;46.084;18.762;2023-04-19T01:06:54;3.92;;;2.15;;
76459;SDS011;65299;46.084;18.762;2023-04-19T01:09:55;3.80;;;2.20;;
76459;SDS011;65299;46.084;18.762;2023-04-19T01:12:55;4.67;;;2.17;;
76459;SDS011;65299;46.084;18.762;2023-04-19T01:15:56;7.23;;;2.20;;
76459;SDS011;65299;46.084;18.762;2023-04-19T01:18:56;4.07;;;2.00;;
76459;SDS011;65299;46.084;18.762;2023-04-19T01:21:57;5.50;;;2.10;;
76459;SDS011;65299;46.084;18.762;2023-04-19T01:24:57;5.78;;;2.00;;
76459;SDS011;65299;46.084;18.762;2023-04-19T01:27:58;2.97;;;2.00;;
76459;SDS011;65299;46.084;18.762;2023-04-19T01:30:58;4.13;;;2.27;;
76459;SDS011;65299;46.084;18.762;2023-04-19T01:33:58;6.33;;;2.10;;
76459;SDS011;65299;46.084;18.762;2023-04-19T01:36:59;4.60;;;2.30;;
76459;SDS011;65299;46.084;18.762;2023-04-19T01:40:00;4.37;;;2.10;;
76459;SDS011;65299;46.084;18.762;2023-04-19T01:43:00;4.10;;;2.03;;
76459;SDS011;65299;46.084;18.762;2023-04-19T01:46:01;4.30;;;2.60;;
76459;SDS011;65299;46.084;18.762;2023-04-19T01:49:01;6.40;;;2.20;;
76459;SDS011;65299;46.084;18.762;2023-04-19T01:52:01;4.97;;;2.30;;
76459;SDS011;65299;46.084;18.762;2023-04-19T01:55:02;3.17;;;1.92;;
76459;SDS011;65299;46.084;18.762;2023-04-19T01:58:02;3.83;;;1.97;;
76459;SDS011;65299;46.084;18.762;2023-04-19T02:01:03;5.40;;;2.37;;
76459;SDS011;65299;46.084;18.762;2023-04-19T02:04:03;4.28;;;2.30;;
76459;SDS011;65299;46.084;18.762;2023-04-19T02:07:04;5.83;;;2.70;;
76459;SDS011;65299;46.084;18.762;2023-04-19T02:10:04;4.20;;;2.30;;
76459;SDS011;65299;46.084;18.762;2023-04-19T02:13:05;3.95;;;2.15;;
76459;SDS011;65299;46.084;18.762;2023-04-19T02:16:06;4.27;;;2.50;;
76459;SDS011;65299;46.084;18.762;2023-04-19T02:19:06;8.13;;;2.80;;
76459;SDS011;65299;46.084;18.762;2023-04-19T02:22:07;6.03;;;2.20;;
76459;SDS011;65299;46.084;18.762;2023-04-19T02:25:07;6.60;;;2.63;;
76459;SDS011;65299;46.084;18.762;2023-04-19T02:28:08;6.45;;;2.58;;
76459;SDS011;65299;46.084;18.762;2023-04-19T02:31:08;3.43;;;2.30;;
76459;SDS011;65299;46.084;18.762;2023-04-19T02:34:09;5.87;;;2.50;;
76459;SDS011;65299;46.084;18.762;2023-04-19T02:37:09;4.13;;;2.40;;
76459;SDS011;65299;46.084;18.762;2023-04-19T02:40:10;5.93;;;3.03;;
76459;SDS011;65299;46.084;18.762;2023-04-19T02:43:10;4.00;;;2.57;;
76459;SDS011;65299;46.084;18.762;2023-04-19T02:46:11;8.23;;;2.60;;
76459;SDS011;65299;46.084;18.762;2023-04-19T02:49:11;5.00;;;2.50;;
76459;SDS011;65299;46.084;18.762;2023-04-19T02:52:12;7.00;;;2.57;;
76459;SDS011;65299;46.084;18.762;2023-04-19T02:55:12;4.80;;;2.90;;
76459;SDS011;65299;46.084;18.762;2023-04-19T02:58:12;4.47;;;2.45;;
76459;SDS011;65299;46.084;18.762;2023-04-19T03:01:13;7.17;;;2.80;;
76459;SDS011;65299;46.084;18.762;2023-04-19T03:04:13;4.30;;;2.30;;
76459;SDS011;65299;46.084;18.762;2023-04-19T03:07:14;4.07;;;2.20;;
76459;SDS011;65299;46.084;18.762;2023-04-19T03:10:14;4.33;;;2.40;;
76459;SDS011;65299;46.084;18.762;2023-04-19T03:13:14;4.65;;;2.50;;
76459;SDS011;65299;46.084;18.762;2023-04-19T03:16:15;4.03;;;2.50;;
76459;SDS011;65299;46.084;18.762;2023-04-19T03:19:15;4.43;;;2.53;;
76459;SDS011;65299;46.084;18.762;2023-04-19T03:22:16;5.43;;;2.63;;
76459;SDS011;65299;46.084;18.762;2023-04-19T03:25:16;7.05;;;2.40;;
76459;SDS011;65299;46.084;18.762;2023-04-19T03:28:16;6.00;;;2.80;;
76459;SDS011;65299;46.084;18.762;2023-04-19T03:31:17;5.53;;;2.97;;
76459;SDS011;65299;46.084;18.762;2023-04-19T03:34:17;9.70;;;4.37;;
76459;SDS011;65299;46.084;18.762;2023-04-19T03:37:19;9.68;;;5.55;;
76459;SDS011;65299;46.084;18.762;2023-04-19T03:40:19;12.67;;;5.67;;
76459;SDS011;65299;46.084;18.762;2023-04-19T03:43:21;11.77;;;4.60;;
76459;SDS011;65299;46.084;18.762;2023-04-19T03:46:21;12.50;;;4.93;;
76459;SDS011;65299;46.084;18.762;2023-04-19T03:49:22;23.13;;;8.90;;
76459;SDS011;65299;46.084;18.762;2023-04-19T03:52:22;15.37;;;6.83;;
76459;SDS011;65299;46.084;18.762;2023-04-19T03:55:24;11.40;;;4.53;;
76459;SDS011;65299;46.084;18.762;2023-04-19T03:58:25;8.43;;;5.03;;
76459;SDS011;65299;46.084;18.762;2023-04-19T04:01:25;8.53;;;4.90;;
76459;SDS011;65299;46.084;18.762;2023-04-19T04:04:26;8.05;;;4.40;;
76459;SDS011;65299;46.084;18.762;2023-04-19T04:07:26;7.57;;;4.20;;
76459;SDS011;65299;46.084;18.762;2023-04-19T04:10:26;9.10;;;5.10;;
76459;SDS011;65299;46.084;18.762;2023-04-19T04:13:27;9.37;;;5.00;;
76459;SDS011;65299;46.084;18.762;2023-04-19T04:16:27;11.63;;;6.88;;
76459;SDS011;65299;46.084;18.762;2023-04-19T04:19:28;11.83;;;6.70;;
76459;SDS011;65299;46.084;18.762;2023-04-19T04:22:28;8.87;;;4.97;;
76459;SDS011;65299;46.084;18.762;2023-04-19T04:25:28;8.57;;;4.20;;
76459;SDS011;65299;46.084;18.762;2023-04-19T04:28:32;12.23;;;5.05;;
76459;SDS011;65299;46.084;18.762;2023-04-19T04:31:32;14.10;;;6.90;;
76459;SDS011;65299;46.084;18.762;2023-04-19T04:34:35;10.68;;;4.75;;
76459;SDS011;65299;46.084;18.762;2023-04-19T04:37:36;11.00;;;4.80;;
76459;SDS011;65299;46.084;18.762;2023-04-19T04:40:36;8.53;;;4.83;;
76459;SDS011;65299;46.084;18.762;2023-04-19T04:43:37;8.45;;;4.07;;
76459;SDS011;65299;46.084;18.762;2023-04-19T04:46:38;7.77;;;4.50;;
76459;SDS011;65299;46.084;18.762;2023-04-19T04:49:39;10.05;;;4.85;;
76459;SDS011;65299;46.084;18.762;2023-04-19T04:52:39;7.77;;;3.90;;
76459;SDS011;65299;46.084;18.762;2023-04-19T04:55:39;8.07;;;4.43;;
76459;SDS011;65299;46.084;18.762;2023-04-19T04:58:40;9.03;;;3.97;;
76459;SDS011;65299;46.084;18.762;2023-04-19T05:01:40;10.40;;;4.10;;
76459;SDS011;65299;46.084;18.762;2023-04-19T05:04:41;11.05;;;4.65;;
76459;SDS011;65299;46.084;18.762;2023-04-19T05:07:41;6.87;;;3.53;;
76459;SDS011;65299;46.084;18.762;2023-04-19T05:10:41;6.60;;;3.57;;
76459;SDS011;65299;46.084;18.762;2023-04-19T05:13:42;5.70;;;3.57;;
76459;SDS011;65299;46.084;18.762;2023-04-19T05:16:42;8.07;;;3.60;;
76459;SDS011;65299;46.084;18.762;2023-04-19T05:19:43;7.50;;;3.87;;
76459;SDS011;65299;46.084;18.762;2023-04-19T05:22:43;6.07;;;3.20;;
76459;SDS011;65299;46.084;18.762;2023-04-19T05:25:44;5.85;;;3.53;;
76459;SDS011;65299;46.084;18.762;2023-04-19T05:28:45;6.38;;;3.67;;
76459;SDS011;65299;46.084;18.762;2023-04-19T05:31:45;7.63;;;3.93;;
76459;SDS011;65299;46.084;18.762;2023-04-19T05:34:46;8.63;;;3.80;;
76459;SDS011;65299;46.084;18.762;2023-04-19T05:37:46;7.50;;;3.90;;
76459;SDS011;65299;46.084;18.762;2023-04-19T05:40:47;7.93;;;3.72;;
76459;SDS011;65299;46.084;18.762;2023-04-19T05:43:47;8.53;;;3.43;;
76459;SDS011;65299;46.084;18.762;2023-04-19T05:46:47;6.87;;;3.63;;
76459;SDS011;65299;46.084;18.762;2023-04-19T05:49:48;5.90;;;3.20;;
76459;SDS011;65299;46.084;18.762;2023-04-19T05:52:52;5.78;;;3.25;;
76459;SDS011;65299;46.084;18.762;2023-04-19T05:55:52;6.30;;;3.87;;
76459;SDS011;65299;46.084;18.762;2023-04-19T05:58:53;7.85;;;3.22;;
76459;SDS011;65299;46.084;18.762;2023-04-19T06:01:55;6.27;;;3.13;;
76459;SDS011;65299;46.084;18.762;2023-04-19T06:04:55;8.68;;;3.38;;
76459;SDS011;65299;46.084;18.762;2023-04-19T06:07:59;8.05;;;3.80;;
76459;SDS011;65299;46.084;18.762;2023-04-19T06:10:59;7.70;;;3.63;;
76459;SDS011;65299;46.084;18.762;2023-04-19T06:14:00;8.80;;;4.97;;
76459;SDS011;65299;46.084;18.762;2023-04-19T06:17:00;11.18;;;5.47;;
76459;SDS011;65299;46.084;18.762;2023-04-19T06:20:01;7.43;;;4.10;;
76459;SDS011;65299;46.084;18.762;2023-04-19T06:23:01;6.70;;;3.73;;
76459;SDS011;65299;46.084;18.762;2023-04-19T06:26:01;7.50;;;4.33;;
76459;SDS011;65299;46.084;18.762;2023-04-19T06:29:02;8.45;;;3.97;;
76459;SDS011;65299;46.084;18.762;2023-04-19T06:32:03;7.33;;;4.13;;
76459;SDS011;65299;46.084;18.762;2023-04-19T06:35:04;6.43;;;4.22;;
76459;SDS011;65299;46.084;18.762;2023-04-19T06:38:05;7.28;;;4.45;;
76459;SDS011;65299;46.084;18.762;2023-04-19T06:41:06;6.50;;;3.77;;
76459;SDS011;65299;46.084;18.762;2023-04-19T06:44:08;7.35;;;3.67;;
76459;SDS011;65299;46.084;18.762;2023-04-19T06:47:08;12.17;;;3.80;;
76459;SDS011;65299;46.084;18.762;2023-04-19T06:50:09;6.65;;;3.45;;
76459;SDS011;65299;46.084;18.762;2023-04-19T06:53:10;5.23;;;3.60;;
76459;SDS011;65299;46.084;18.762;2023-04-19T06:56:10;5.65;;;3.88;;
76459;SDS011;65299;46.084;18.762;2023-04-19T06:59:12;6.13;;;3.50;;
76459;SDS011;65299;46.084;18.762;2023-04-19T07:02:15;8.93;;;4.00;;
76459;SDS011;65299;46.084;18.762;2023-04-19T07:05:15;7.53;;;3.90;;
76459;SDS011;65299;46.084;18.762;2023-04-19T07:08:17;9.38;;;4.68;;
76459;SDS011;65299;46.084;18.762;2023-04-19T07:11:17;9.33;;;4.30;;
76459;SDS011;65299;46.084;18.762;2023-04-19T07:14:18;6.78;;;3.78;;
76459;SDS011;65299;46.084;18.762;2023-04-19T07:17:18;6.90;;;3.77;;
76459;SDS011;65299;46.084;18.762;2023-04-19T07:20:19;7.30;;;4.43;;
76459;SDS011;65299;46.084;18.762;2023-04-19T07:23:19;10.40;;;4.65;;
76459;SDS011;65299;46.084;18.762;2023-04-19T07:26:20;8.37;;;4.07;;
76459;SDS011;65299;46.084;18.762;2023-04-19T07:29:20;6.73;;;4.30;;
76459;SDS011;65299;46.084;18.762;2023-04-19T07:32:21;11.50;;;5.35;;
76459;SDS011;65299;46.084;18.762;2023-04-19T07:35:21;11.77;;;4.90;;
76459;SDS011;65299;46.084;18.762;2023-04-19T07:38:22;7.70;;;4.60;;
76459;SDS011;65299;46.084;18.762;2023-04-19T07:41:23;9.05;;;4.38;;
76459;SDS011;65299;46.084;18.762;2023-04-19T07:44:24;12.83;;;5.27;;
76459;SDS011;65299;46.084;18.762;2023-04-19T07:47:24;10.50;;;5.13;;
76459;SDS011;65299;46.084;18.762;2023-04-19T07:50:25;7.67;;;4.37;;
76459;SDS011;65299;46.084;18.762;2023-04-19T07:53:26;8.30;;;4.40;;
76459;SDS011;65299;46.084;18.762;2023-04-19T07:56:26;6.77;;;4.40;;
76459;SDS011;65299;46.084;18.762;2023-04-19T07:59:27;9.20;;;3.77;;
76459;SDS011;65299;46.084;18.762;2023-04-19T08:02:27;7.60;;;4.27;;
76459;SDS011;65299;46.084;18.762;2023-04-19T08:05:27;7.25;;;3.90;;
76459;SDS011;65299;46.084;18.762;2023-04-19T08:08:29;6.37;;;3.40;;
76459;SDS011;65299;46.084;18.762;2023-04-19T08:11:29;6.57;;;3.58;;
76459;SDS011;65299;46.084;18.762;2023-04-19T08:14:30;9.02;;;3.78;;
76459;SDS011;65299;46.084;18.762;2023-04-19T08:17:31;7.20;;;4.33;;
76459;SDS011;65299;46.084;18.762;2023-04-19T08:20:31;5.70;;;3.80;;
76459;SDS011;65299;46.084;18.762;2023-04-19T08:23:36;7.85;;;4.03;;
76459;SDS011;65299;46.084;18.762;2023-04-19T08:26:37;5.77;;;3.77;;
76459;SDS011;65299;46.084;18.762;2023-04-19T08:29:38;7.47;;;4.35;;
76459;SDS011;65299;46.084;18.762;2023-04-19T08:32:38;7.87;;;4.60;;
76459;SDS011;65299;46.084;18.762;2023-04-19T08:35:39;7.43;;;3.90;;
76459;SDS011;65299;46.084;18.762;2023-04-19T08:38:40;7.38;;;3.78;;
76459;SDS011;65299;46.084;18.762;2023-04-19T08:41:41;6.95;;;4.18;;
76459;SDS011;65299;46.084;18.762;2023-04-19T08:44:41;6.50;;;4.00;;
76459;SDS011;65299;46.084;18.762;2023-04-19T08:47:43;7.20;;;4.03;;
76459;SDS011;65299;46.084;18.762;2023-04-19T08:50:45;5.80;;;3.27;;
76459;SDS011;65299;46.084;18.762;2023-04-19T08:53:45;7.93;;;4.10;;
76459;SDS011;65299;46.084;18.762;2023-04-19T08:56:48;8.98;;;4.20;;
76459;SDS011;65299;46.084;18.762;2023-04-19T08:59:49;8.67;;;3.60;;
76459;SDS011;65299;46.084;18.762;2023-04-19T09:02:54;6.50;;;3.75;;
76459;SDS011;65299;46.084;18.762;2023-04-19T09:05:55;6.32;;;3.92;;
76459;SDS011;65299;46.084;18.762;2023-04-19T09:09:12;6.27;;;3.57;;
76459;SDS011;65299;46.084;18.762;2023-04-19T09:12:22;6.57;;;3.60;;
76459;SDS011;65299;46.084;18.762;2023-04-19T09:15:34;8.57;;;3.45;;
76459;SDS011;65299;46.084;18.762;2023-04-19T09:18:57;4.47;;;3.20;;
76459;SDS011;65299;46.084;18.762;2023-04-19T09:21:59;5.93;;;3.72;;
76459;SDS011;65299;46.084;18.762;2023-04-19T09:25:22;4.60;;;3.20;;
76459;SDS011;65299;46.084;18.762;2023-04-19T09:28:25;5.57;;;3.88;;
76459;SDS011;65299;46.084;18.762;2023-04-19T09:31:26;5.60;;;3.45;;
76459;SDS011;65299;46.084;18.762;2023-04-19T09:34:28;5.63;;;3.80;;
76459;SDS011;65299;46.084;18.762;2023-04-19T09:37:29;6.78;;;4.13;;
76459;SDS011;65299;46.084;18.762;2023-04-19T09:40:30;7.95;;;3.97;;
76459;SDS011;65299;46.084;18.762;2023-04-19T09:43:30;6.70;;;3.90;;
76459;SDS011;65299;46.084;18.762;2023-04-19T09:46:34;6.87;;;3.90;;
76459;SDS011;65299;46.084;18.762;2023-04-19T09:49:35;7.07;;;4.30;;
76459;SDS011;65299;46.084;18.762;2023-04-19T09:52:36;6.07;;;3.13;;
76459;SDS011;65299;46.084;18.762;2023-04-19T09:55:37;6.18;;;3.20;;
76459;SDS011;65299;46.084;18.762;2023-04-19T09:58:40;5.30;;;3.47;;
76459;SDS011;65299;46.084;18.762;2023-04-19T10:01:44;6.17;;;3.07;;
76459;SDS011;65299;46.084;18.762;2023-04-19T10:04:46;5.03;;;3.10;;
76459;SDS011;65299;46.084;18.762;2023-04-19T10:07:47;4.97;;;3.20;;
76459;SDS011;65299;46.084;18.762;2023-04-19T10:10:48;7.30;;;3.63;;
76459;SDS011;65299;46.084;18.762;2023-04-19T10:13:55;8.45;;;3.97;;
76459;SDS011;65299;46.084;18.762;2023-04-19T10:16:58;6.28;;;3.20;;
76459;SDS011;65299;46.084;18.762;2023-04-19T10:20:03;4.68;;;2.67;;
76459;SDS011;65299;46.084;18.762;2023-04-19T10:23:08;5.77;;;2.77;;
76459;SDS011;65299;46.084;18.762;2023-04-19T10:26:09;4.28;;;2.85;;
76459;SDS011;65299;46.084;18.762;2023-04-19T10:29:10;4.45;;;2.80;;
76459;SDS011;65299;46.084;18.762;2023-04-19T10:32:12;4.40;;;2.50;;
76459;SDS011;65299;46.084;18.762;2023-04-19T10:35:19;6.00;;;2.90;;
76459;SDS011;65299;46.084;18.762;2023-04-19T10:38:21;4.15;;;2.70;;
76459;SDS011;65299;46.084;18.762;2023-04-19T10:48:34;5.47;;;2.90;;
76459;SDS011;65299;46.084;18.762;2023-04-19T10:51:38;4.80;;;2.50;;
76459;SDS011;65299;46.084;18.762;2023-04-19T10:54:42;6.10;;;2.90;;
76459;SDS011;65299;46.084;18.762;2023-04-19T11:07:51;5.77;;;2.80;;
76459;SDS011;65299;46.084;18.762;2023-04-19T11:10:52;5.50;;;2.97;;
76459;SDS011;65299;46.084;18.762;2023-04-19T11:13:56;5.70;;;3.47;;
76459;SDS011;65299;46.084;18.762;2023-04-19T11:16:59;7.35;;;3.80;;
76459;SDS011;65299;46.084;18.762;2023-04-19T11:20:05;6.10;;;4.05;;
76459;SDS011;65299;46.084;18.762;2023-04-19T11:23:14;5.50;;;3.77;;
76459;SDS011;65299;46.084;18.762;2023-04-19T11:26:16;7.93;;;3.75;;
76459;SDS011;65299;46.084;18.762;2023-04-19T11:29:18;6.57;;;3.33;;
76459;SDS011;65299;46.084;18.762;2023-04-19T11:32:20;7.68;;;3.28;;
76459;SDS011;65299;46.084;18.762;2023-04-19T11:35:24;5.82;;;3.70;;
76459;SDS011;65299;46.084;18.762;2023-04-19T11:38:29;7.47;;;3.70;;
76459;SDS011;65299;46.084;18.762;2023-04-19T11:41:35;6.87;;;3.60;;
76459;SDS011;65299;46.084;18.762;2023-04-19T11:44:37;7.05;;;3.22;;
76459;SDS011;65299;46.084;18.762;2023-04-19T11:47:47;5.47;;;3.80;;
76459;SDS011;65299;46.084;18.762;2023-04-19T11:50:48;6.28;;;3.60;;
76459;SDS011;65299;46.084;18.762;2023-04-19T11:53:49;9.10;;;3.97;;
76459;SDS011;65299;46.084;18.762;2023-04-19T12:00:05;6.07;;;3.25;;
76459;SDS011;65299;46.084;18.762;2023-04-19T12:03:10;12.20;;;4.40;;
76459;SDS011;65299;46.084;18.762;2023-04-19T12:06:13;15.27;;;4.80;;
76459;SDS011;65299;46.084;18.762;2023-04-19T12:09:24;5.25;;;3.50;;
76459;SDS011;65299;46.084;18.762;2023-04-19T12:12:31;8.35;;;4.60;;
76459;SDS011;65299;46.084;18.762;2023-04-19T12:15:41;6.53;;;4.57;;
76459;SDS011;65299;46.084;18.762;2023-04-19T12:18:43;8.77;;;5.05;;
76459;SDS011;65299;46.084;18.762;2023-04-19T12:21:49;8.00;;;4.95;;
76459;SDS011;65299;46.084;18.762;2023-04-19T12:24:49;8.47;;;4.83;;
76459;SDS011;65299;46.084;18.762;2023-04-19T12:27:51;8.82;;;4.57;;
76459;SDS011;65299;46.084;18.762;2023-04-19T12:30:51;9.57;;;4.47;;
76459;SDS011;65299;46.084;18.762;2023-04-19T12:33:52;4.53;;;3.40;;
76459;SDS011;65299;46.084;18.762;2023-04-19T12:36:52;5.28;;;3.38;;
76459;SDS011;65299;46.084;18.762;2023-04-19T12:39:53;6.23;;;3.40;;
76459;SDS011;65299;46.084;18.762;2023-04-19T12:42:53;7.85;;;3.40;;
76459;SDS011;65299;46.084;18.762;2023-04-19T12:45:54;7.20;;;3.87;;
76459;SDS011;65299;46.084;18.762;2023-04-19T12:48:55;7.18;;;3.63;;
76459;SDS011;65299;46.084;18.762;2023-04-19T12:51:55;5.40;;;3.30;;
76459;SDS011;65299;46.084;18.762;2023-04-19T12:54:55;8.30;;;3.33;;
76459;SDS011;65299;46.084;18.762;2023-04-19T12:57:56;8.87;;;3.17;;
76459;SDS011;65299;46.084;18.762;2023-04-19T13:00:56;4.50;;;2.90;;
76459;SDS011;65299;46.084;18.762;2023-04-19T13:03:57;6.33;;;3.43;;
76459;SDS011;65299;46.084;18.762;2023-04-19T13:06:57;7.83;;;3.70;;
76459;SDS011;65299;46.084;18.762;2023-04-19T13:09:58;6.07;;;3.30;;
76459;SDS011;65299;46.084;18.762;2023-04-19T13:12:58;9.73;;;3.50;;
76459;SDS011;65299;46.084;18.762;2023-04-19T13:15:59;6.63;;;3.60;;
76459;SDS011;65299;46.084;18.762;2023-04-19T13:19:01;8.52;;;3.63;;
76459;SDS011;65299;46.084;18.762;2023-04-19T13:22:01;6.50;;;3.60;;
76459;SDS011;65299;46.084;18.762;2023-04-19T13:25:02;5.57;;;3.30;;
76459;SDS011;65299;46.084;18.762;2023-04-19T13:28:02;6.10;;;3.50;;
76459;SDS011;65299;46.084;18.762;2023-04-19T13:31:03;6.20;;;3.60;;
76459;SDS011;65299;46.084;18.762;2023-04-19T13:34:04;6.97;;;4.17;;
76459;SDS011;65299;46.084;18.762;2023-04-19T13:37:05;4.28;;;3.45;;
76459;SDS011;65299;46.084;18.762;2023-04-19T13:40:06;6.83;;;3.87;;
76459;SDS011;65299;46.084;18.762;2023-04-19T13:43:08;5.00;;;3.08;;
76459;SDS011;65299;46.084;18.762;2023-04-19T13:46:08;7.90;;;3.77;;
76459;SDS011;65299;46.084;18.762;2023-04-19T13:49:08;4.70;;;3.03;;
76459;SDS011;65299;46.084;18.762;2023-04-19T13:52:09;6.90;;;4.07;;
76459;SDS011;65299;46.084;18.762;2023-04-19T13:55:10;10.77;;;4.27;;
76459;SDS011;65299;46.084;18.762;2023-04-19T13:58:10;8.20;;;4.07;;
76459;SDS011;65299;46.084;18.762;2023-04-19T14:01:10;11.03;;;4.77;;
76459;SDS011;65299;46.084;18.762;2023-04-19T14:04:11;6.83;;;4.17;;
76459;SDS011;65299;46.084;18.762;2023-04-19T14:07:11;5.67;;;3.20;;
76459;SDS011;65299;46.084;18.762;2023-04-19T14:10:12;5.82;;;3.17;;
76459;SDS011;65299;46.084;18.762;2023-04-19T14:13:12;6.13;;;3.20;;
76459;SDS011;65299;46.084;18.762;2023-04-19T14:16:13;11.90;;;5.73;;
76459;SDS011;65299;46.084;18.762;2023-04-19T14:19:13;7.43;;;3.90;;
76459;SDS011;65299;46.084;18.762;2023-04-19T14:22:17;5.37;;;3.43;;
76459;SDS011;65299;46.084;18.762;2023-04-19T14:25:17;7.47;;;3.90;;
76459;SDS011;65299;46.084;18.762;2023-04-19T14:28:18;7.53;;;4.17;;
76459;SDS011;65299;46.084;18.762;2023-04-19T14:31:18;7.33;;;5.33;;
76459;SDS011;65299;46.084;18.762;2023-04-19T14:34:19;9.37;;;5.20;;
76459;SDS011;65299;46.084;18.762;2023-04-19T14:37:19;6.38;;;4.60;;
76459;SDS011;65299;46.084;18.762;2023-04-19T14:40:21;7.07;;;4.68;;
76459;SDS011;65299;46.084;18.762;2023-04-19T14:43:21;7.67;;;4.50;;
76459;SDS011;65299;46.084;18.762;2023-04-19T14:46:22;9.23;;;6.03;;
76459;SDS011;65299;46.084;18.762;2023-04-19T14:49:22;6.47;;;4.80;;
76459;SDS011;65299;46.084;18.762;2023-04-19T14:52:22;9.33;;;5.00;;
76459;SDS011;65299;46.084;18.762;2023-04-19T14:55:23;6.60;;;4.70;;
76459;SDS011;65299;46.084;18.762;2023-04-19T14:58:25;12.52;;;6.68;;
76459;SDS011;65299;46.084;18.762;2023-04-19T15:01:26;9.07;;;5.80;;
76459;SDS011;65299;46.084;18.762;2023-04-19T15:04:26;8.90;;;5.20;;
76459;SDS011;65299;46.084;18.762;2023-04-19T15:07:27;10.35;;;5.35;;
76459;SDS011;65299;46.084;18.762;2023-04-19T15:10:27;9.10;;;5.40;;
76459;SDS011;65299;46.084;18.762;2023-04-19T15:13:28;8.43;;;5.17;;
76459;SDS011;65299;46.084;18.762;2023-04-19T15:16:28;10.77;;;5.22;;
76459;SDS011;65299;46.084;18.762;2023-04-19T15:19:29;9.77;;;5.87;;
76459;SDS011;65299;46.084;18.762;2023-04-19T15:22:33;7.13;;;5.15;;
76459;SDS011;65299;46.084;18.762;2023-04-19T15:25:33;9.95;;;5.30;;
76459;SDS011;65299;46.084;18.762;2023-04-19T15:28:34;8.63;;;5.03;;
76459;SDS011;65299;46.084;18.762;2023-04-19T15:31:35;7.78;;;5.20;;
76459;SDS011;65299;46.084;18.762;2023-04-19T15:34:35;8.33;;;5.57;;
76459;SDS011;65299;46.084;18.762;2023-04-19T15:37:35;12.20;;;7.03;;
76459;SDS011;65299;46.084;18.762;2023-04-19T15:40:37;8.05;;;5.70;;
76459;SDS011;65299;46.084;18.762;2023-04-19T15:43:37;7.83;;;5.80;;
76459;SDS011;65299;46.084;18.762;2023-04-19T15:46:38;7.70;;;5.10;;
76459;SDS011;65299;46.084;18.762;2023-04-19T15:49:38;9.13;;;5.33;;
76459;SDS011;65299;46.084;18.762;2023-04-19T15:52:39;8.68;;;4.97;;
76459;SDS011;65299;46.084;18.762;2023-04-19T15:55:40;10.40;;;5.70;;
76459;SDS011;65299;46.084;18.762;2023-04-19T15:58:40;6.30;;;5.10;;
76459;SDS011;65299;46.084;18.762;2023-04-19T16:01:41;6.47;;;5.03;;
76459;SDS011;65299;46.084;18.762;2023-04-19T16:04:41;6.97;;;4.60;;
76459;SDS011;65299;46.084;18.762;2023-04-19T16:07:44;8.10;;;4.45;;
76459;SDS011;65299;46.084;18.762;2023-04-19T16:10:45;10.17;;;6.03;;
76459;SDS011;65299;46.084;18.762;2023-04-19T16:13:46;10.40;;;6.88;;
76459;SDS011;65299;46.084;18.762;2023-04-19T16:16:47;10.03;;;6.70;;
76459;SDS011;65299;46.084;18.762;2023-04-19T16:19:47;8.35;;;6.20;;
76459;SDS011;65299;46.084;18.762;2023-04-19T16:22:48;9.00;;;5.70;;
76459;SDS011;65299;46.084;18.762;2023-04-19T16:25:48;8.97;;;5.70;;
76459;SDS011;65299;46.084;18.762;2023-04-19T16:28:49;9.23;;;5.57;;
76459;SDS011;65299;46.084;18.762;2023-04-19T16:31:49;8.23;;;5.43;;
76459;SDS011;65299;46.084;18.762;2023-04-19T16:34:50;9.50;;;4.93;;
76459;SDS011;65299;46.084;18.762;2023-04-19T16:37:50;7.80;;;5.00;;
76459;SDS011;65299;46.084;18.762;2023-04-19T16:40:51;5.78;;;4.80;;
76459;SDS011;65299;46.084;18.762;2023-04-19T16:43:52;6.47;;;4.90;;
76459;SDS011;65299;46.084;18.762;2023-04-19T16:46:52;8.90;;;5.47;;
76459;SDS011;65299;46.084;18.762;2023-04-19T16:49:53;7.17;;;5.27;;
76459;SDS011;65299;46.084;18.762;2023-04-19T16:52:53;8.90;;;5.13;;
76459;SDS011;65299;46.084;18.762;2023-04-19T16:55:54;7.47;;;4.85;;
76459;SDS011;65299;46.084;18.762;2023-04-19T16:58:54;10.30;;;4.07;;
76459;SDS011;65299;46.084;18.762;2023-04-19T17:01:57;7.45;;;5.47;;
76459;SDS011;65299;46.084;18.762;2023-04-19T17:04:57;10.07;;;6.20;;
76459;SDS011;65299;46.084;18.762;2023-04-19T17:07:58;9.97;;;6.10;;
76459;SDS011;65299;46.084;18.762;2023-04-19T17:10:58;14.33;;;7.30;;
76459;SDS011;65299;46.084;18.762;2023-04-19T17:13:59;13.63;;;8.13;;
76459;SDS011;65299;46.084;18.762;2023-04-19T17:17:00;14.90;;;9.07;;
76459;SDS011;65299;46.084;18.762;2023-04-19T17:20:01;12.65;;;8.82;;
76459;SDS011;65299;46.084;18.762;2023-04-19T17:23:02;16.30;;;8.63;;
76459;SDS011;65299;46.084;18.762;2023-04-19T17:26:03;11.95;;;7.95;;
76459;SDS011;65299;46.084;18.762;2023-04-19T17:29:03;12.70;;;7.60;;
76459;SDS011;65299;46.084;18.762;2023-04-19T17:32:04;12.82;;;6.90;;
76459;SDS011;65299;46.084;18.762;2023-04-19T17:35:05;11.87;;;7.43;;
76459;SDS011;65299;46.084;18.762;2023-04-19T17:38:06;13.63;;;8.55;;
76459;SDS011;65299;46.084;18.762;2023-04-19T17:41:06;9.90;;;7.30;;
76459;SDS011;65299;46.084;18.762;2023-04-19T17:44:14;13.27;;;8.20;;
76459;SDS011;65299;46.084;18.762;2023-04-19T17:47:15;17.50;;;8.77;;
76459;SDS011;65299;46.084;18.762;2023-04-19T17:50:15;21.65;;;12.52;;
76459;SDS011;65299;46.084;18.762;2023-04-19T17:53:16;22.93;;;13.63;;
76459;SDS011;65299;46.084;18.762;2023-04-19T17:56:16;30.57;;;17.33;;
76459;SDS011;65299;46.084;18.762;2023-04-19T17:59:17;23.10;;;13.43;;
76459;SDS011;65299;46.084;18.762;2023-04-19T18:02:18;17.63;;;10.68;;
76459;SDS011;65299;46.084;18.762;2023-04-19T18:05:18;17.00;;;10.93;;
76459;SDS011;65299;46.084;18.762;2023-04-19T18:08:19;20.43;;;10.17;;
76459;SDS011;65299;46.084;18.762;2023-04-19T18:11:19;17.75;;;10.40;;